In Rescue
 
Open Full Screen Window  High Contrast Mode
August 12, 2020 2:59 AM EDT
Weather Information
Wind Direction
  ---
Wind Speed
  00 kt (0 mph)
Wind Gust
  00 kt (0 mph)
Altimeter
30.05 in
Visibility
3/4 SM
Temperature
18° C
64° F
Dewpoint
17° C
63° F
Humidity
94%
1hr Rain Fall
00.00 in.
24hr Rain Fall
00.11 in.
Sky Condition
VV @ 500 ft
IFR

METAR KMRT 120659Z AUTO 00000KT 3/4SM VV005 18/17 A3005 RMK AO1

FAA Disclaimer: The data displayed is for advisory purposes only and is not to be used for flight planning or operations.